sensor_id;sensor_type;location;lat;lon;timestamp;pressure;altitude;pressure_sealevel;temperature;humidity
44140;BME280;29803;51.048;4.686;2023-04-12T00:00:47;100482.00;;;7.75;100.00
44140;BME280;29803;51.048;4.686;2023-04-12T00:03:20;100482.00;;;7.75;100.00
44140;BME280;29803;51.048;4.686;2023-04-12T00:05:51;100465.13;;;7.74;100.00
44140;BME280;29803;51.048;4.686;2023-04-12T00:08:23;100448.78;;;7.77;100.00
44140;BME280;29803;51.048;4.686;2023-04-12T00:10:55;100438.94;;;7.78;100.00
44140;BME280;29803;51.048;4.686;2023-04-12T00:13:26;100431.63;;;7.80;100.00
44140;BME280;29803;51.048;4.686;2023-04-12T00:15:56;100429.78;;;7.81;100.00
44140;BME280;29803;51.048;4.686;2023-04-12T00:18:27;100427.13;;;7.81;100.00
44140;BME280;29803;51.048;4.686;2023-04-12T00:20:57;100411.75;;;7.83;100.00
44140;BME280;29803;51.048;4.686;2023-04-12T00:23:28;100402.06;;;7.82;100.00
44140;BME280;29803;51.048;4.686;2023-04-12T00:25:58;100399.56;;;7.80;100.00
44140;BME280;29803;51.048;4.686;2023-04-12T00:28:29;100392.91;;;7.84;100.00
44140;BME280;29803;51.048;4.686;2023-04-12T00:30:59;100406.28;;;7.84;100.00
44140;BME280;29803;51.048;4.686;2023-04-12T00:33:30;100388.25;;;7.86;100.00
44140;BME280;29803;51.048;4.686;2023-04-12T00:36:00;100377.09;;;7.91;100.00
44140;BME280;29803;51.048;4.686;2023-04-12T00:38:31;100376.09;;;7.92;100.00
44140;BME280;29803;51.048;4.686;2023-04-12T00:41:02;100364.56;;;7.91;100.00
44140;BME280;29803;51.048;4.686;2023-04-12T00:43:32;100355.88;;;7.89;100.00
44140;BME280;29803;51.048;4.686;2023-04-12T00:46:03;100359.06;;;7.93;100.00
44140;BME280;29803;51.048;4.686;2023-04-12T00:48:35;100345.69;;;7.93;100.00
44140;BME280;29803;51.048;4.686;2023-04-12T00:51:06;100333.00;;;7.87;100.00
44140;BME280;29803;51.048;4.686;2023-04-12T00:53:38;100330.31;;;7.87;100.00
44140;BME280;29803;51.048;4.686;2023-04-12T00:56:09;100329.13;;;7.81;100.00
44140;BME280;29803;51.048;4.686;2023-04-12T00:58:41;100309.78;;;7.79;100.00
44140;BME280;29803;51.048;4.686;2023-04-12T01:01:11;100298.75;;;7.74;100.00
44140;BME280;29803;51.048;4.686;2023-04-12T01:03:42;100288.38;;;7.71;100.00
44140;BME280;29803;51.048;4.686;2023-04-12T01:14:50;100266.84;;;7.64;100.00
44140;BME280;29803;51.048;4.686;2023-04-12T01:17:27;100251.66;;;7.65;100.00
44140;BME280;29803;51.048;4.686;2023-04-12T01:20:23;100240.28;;;7.63;100.00
44140;BME280;29803;51.048;4.686;2023-04-12T01:23:33;100235.94;;;7.62;100.00
44140;BME280;29803;51.048;4.686;2023-04-12T01:26:43;100209.59;;;7.59;100.00
44140;BME280;29803;51.048;4.686;2023-04-12T01:29:20;100201.59;;;7.59;100.00
44140;BME280;29803;51.048;4.686;2023-04-12T01:31:58;100193.56;;;7.59;100.00
44140;BME280;29803;51.048;4.686;2023-04-12T01:34:31;100181.72;;;7.53;100.00
44140;BME280;29803;51.048;4.686;2023-04-12T01:37:02;100183.53;;;7.52;100.00
44140;BME280;29803;51.048;4.686;2023-04-12T01:39:34;100178.19;;;7.52;100.00
44140;BME280;29803;51.048;4.686;2023-04-12T01:42:05;100166.19;;;7.57;100.00
44140;BME280;29803;51.048;4.686;2023-04-12T01:44:35;100168.03;;;7.56;100.00
44140;BME280;29803;51.048;4.686;2023-04-12T01:47:06;100151.84;;;7.58;100.00
44140;BME280;29803;51.048;4.686;2023-04-12T01:49:48;100153.38;;;7.60;100.00
44140;BME280;29803;51.048;4.686;2023-04-12T01:52:25;100149.16;;;7.58;100.00
44140;BME280;29803;51.048;4.686;2023-04-12T01:55:01;100135.34;;;7.62;100.00
44140;BME280;29803;51.048;4.686;2023-04-12T01:57:48;100126.34;;;7.63;100.00
44140;BME280;29803;51.048;4.686;2023-04-12T02:00:19;100117.00;;;7.67;100.00
44140;BME280;29803;51.048;4.686;2023-04-12T02:02:50;100109.50;;;7.71;100.00
44140;BME280;29803;51.048;4.686;2023-04-12T02:05:23;100109.66;;;7.69;100.00
44140;BME280;29803;51.048;4.686;2023-04-12T02:07:55;100092.16;;;7.75;100.00
44140;BME280;29803;51.048;4.686;2023-04-12T02:10:37;100091.31;;;7.74;100.00
44140;BME280;29803;51.048;4.686;2023-04-12T02:13:09;100078.63;;;7.76;100.00
44140;BME280;29803;51.048;4.686;2023-04-12T02:15:40;100075.78;;;7.78;100.00
44140;BME280;29803;51.048;4.686;2023-04-12T02:18:11;100063.09;;;7.80;100.00
44140;BME280;29803;51.048;4.686;2023-04-12T02:20:43;100057.78;;;7.80;100.00
44140;BME280;29803;51.048;4.686;2023-04-12T02:23:13;100052.94;;;7.84;100.00
44140;BME280;29803;51.048;4.686;2023-04-12T02:25:44;100053.41;;;7.87;100.00
44140;BME280;29803;51.048;4.686;2023-04-12T02:28:15;100036.06;;;7.91;100.00
44140;BME280;29803;51.048;4.686;2023-04-12T02:30:46;100036.88;;;7.92;100.00
44140;BME280;29803;51.048;4.686;2023-04-12T02:33:16;100029.22;;;7.89;100.00
44140;BME280;29803;51.048;4.686;2023-04-12T02:35:47;100023.53;;;7.92;100.00
44140;BME280;29803;51.048;4.686;2023-04-12T02:38:17;100034.06;;;7.93;100.00
44140;BME280;29803;51.048;4.686;2023-04-12T02:40:48;100031.41;;;7.93;100.00
44140;BME280;29803;51.048;4.686;2023-04-12T02:43:18;100021.88;;;7.91;100.00
44140;BME280;29803;51.048;4.686;2023-04-12T02:45:48;100009.72;;;7.88;100.00
44140;BME280;29803;51.048;4.686;2023-04-12T02:48:19;100006.16;;;7.88;100.00
44140;BME280;29803;51.048;4.686;2023-04-12T02:50:49;100005.69;;;7.84;100.00
44140;BME280;29803;51.048;4.686;2023-04-12T02:53:20;100005.84;;;7.83;100.00
44140;BME280;29803;51.048;4.686;2023-04-12T02:55:51;99990.19;;;7.79;100.00
44140;BME280;29803;51.048;4.686;2023-04-12T02:58:21;99984.16;;;7.77;100.00
44140;BME280;29803;51.048;4.686;2023-04-12T03:00:53;99982.69;;;7.75;100.00
44140;BME280;29803;51.048;4.686;2023-04-12T03:03:23;99981.50;;;7.77;100.00
44140;BME280;29803;51.048;4.686;2023-04-12T03:05:55;99977.34;;;7.75;100.00
44140;BME280;29803;51.048;4.686;2023-04-12T03:08:25;99964.81;;;7.75;100.00
44140;BME280;29803;51.048;4.686;2023-04-12T03:10:56;99961.81;;;7.78;100.00
44140;BME280;29803;51.048;4.686;2023-04-12T03:13:27;99968.00;;;7.79;100.00
44140;BME280;29803;51.048;4.686;2023-04-12T03:15:58;99959.97;;;7.79;100.00
44140;BME280;29803;51.048;4.686;2023-04-12T03:18:29;99951.78;;;7.81;100.00
44140;BME280;29803;51.048;4.686;2023-04-12T03:20:59;99951.59;;;7.82;100.00
44140;BME280;29803;51.048;4.686;2023-04-12T03:23:31;99954.28;;;7.82;100.00
44140;BME280;29803;51.048;4.686;2023-04-12T03:26:02;99939.94;;;7.83;100.00
44140;BME280;29803;51.048;4.686;2023-04-12T03:28:33;99945.09;;;7.85;100.00
44140;BME280;29803;51.048;4.686;2023-04-12T03:31:03;99931.75;;;7.85;100.00
44140;BME280;29803;51.048;4.686;2023-04-12T03:33:34;99935.25;;;7.85;100.00
44140;BME280;29803;51.048;4.686;2023-04-12T03:36:05;99928.91;;;7.86;100.00
44140;BME280;29803;51.048;4.686;2023-04-12T03:38:36;99932.41;;;7.87;100.00
44140;BME280;29803;51.048;4.686;2023-04-12T03:41:07;99917.41;;;7.86;100.00
44140;BME280;29803;51.048;4.686;2023-04-12T03:43:37;99920.72;;;7.88;100.00
44140;BME280;29803;51.048;4.686;2023-04-12T03:46:08;99919.56;;;7.90;100.00
44140;BME280;29803;51.048;4.686;2023-04-12T03:48:38;99900.22;;;7.88;100.00
44140;BME280;29803;51.048;4.686;2023-04-12T03:51:09;99900.69;;;7.92;100.00
44140;BME280;29803;51.048;4.686;2023-04-12T03:53:41;99884.19;;;7.88;100.00
44140;BME280;29803;51.048;4.686;2023-04-12T03:56:11;99894.69;;;7.90;100.00
44140;BME280;29803;51.048;4.686;2023-04-12T03:58:42;99886.69;;;7.90;100.00
44140;BME280;29803;51.048;4.686;2023-04-12T04:01:12;99884.66;;;7.92;100.00
44140;BME280;29803;51.048;4.686;2023-04-12T04:03:44;99875.63;;;7.93;100.00
44140;BME280;29803;51.048;4.686;2023-04-12T04:06:15;99869.47;;;7.92;100.00
44140;BME280;29803;51.048;4.686;2023-04-12T04:08:46;99880.16;;;7.92;100.00
44140;BME280;29803;51.048;4.686;2023-04-12T04:11:17;99874.66;;;7.94;100.00
44140;BME280;29803;51.048;4.686;2023-04-12T04:13:47;99864.94;;;7.93;100.00
44140;BME280;29803;51.048;4.686;2023-04-12T04:16:18;99871.47;;;7.90;100.00
44140;BME280;29803;51.048;4.686;2023-04-12T04:18:48;99860.47;;;7.93;100.00
44140;BME280;29803;51.048;4.686;2023-04-12T04:21:19;99864.13;;;7.92;100.00
44140;BME280;29803;51.048;4.686;2023-04-12T04:23:51;99872.31;;;7.91;100.00
44140;BME280;29803;51.048;4.686;2023-04-12T04:26:22;99866.63;;;7.94;100.00
44140;BME280;29803;51.048;4.686;2023-04-12T04:29:02;99862.13;;;7.94;100.00
44140;BME280;29803;51.048;4.686;2023-04-12T04:31:33;99861.28;;;7.94;100.00
44140;BME280;29803;51.048;4.686;2023-04-12T04:34:05;99853.28;;;7.94;100.00
44140;BME280;29803;51.048;4.686;2023-04-12T04:36:36;99856.59;;;7.96;100.00
44140;BME280;29803;51.048;4.686;2023-04-12T04:39:07;99862.59;;;7.98;100.00
44140;BME280;29803;51.048;4.686;2023-04-12T04:41:38;99853.75;;;7.97;100.00
44140;BME280;29803;51.048;4.686;2023-04-12T04:44:08;99848.25;;;7.99;100.00
44140;BME280;29803;51.048;4.686;2023-04-12T04:46:39;99852.78;;;7.98;100.00
44140;BME280;29803;51.048;4.686;2023-04-12T04:49:10;99843.75;;;7.99;100.00
44140;BME280;29803;51.048;4.686;2023-04-12T04:51:41;99850.75;;;8.00;100.00
44140;BME280;29803;51.048;4.686;2023-04-12T04:54:11;99851.38;;;8.02;100.00
44140;BME280;29803;51.048;4.686;2023-04-12T04:56:43;99854.06;;;8.02;100.00
44140;BME280;29803;51.048;4.686;2023-04-12T04:59:13;99848.72;;;8.02;100.00
44140;BME280;29803;51.048;4.686;2023-04-12T05:01:44;99844.88;;;8.05;100.00
44140;BME280;29803;51.048;4.686;2023-04-12T05:04:14;99843.38;;;8.02;100.00
44140;BME280;29803;51.048;4.686;2023-04-12T05:06:45;99845.72;;;8.05;100.00
44140;BME280;29803;51.048;4.686;2023-04-12T05:09:15;99846.34;;;8.08;100.00
44140;BME280;29803;51.048;4.686;2023-04-12T05:11:46;99839.72;;;8.03;100.00
44140;BME280;29803;51.048;4.686;2023-04-12T05:14:16;99842.84;;;8.07;100.00
44140;BME280;29803;51.048;4.686;2023-04-12T05:16:47;99850.88;;;8.07;100.00
44140;BME280;29803;51.048;4.686;2023-04-12T05:19:17;99849.53;;;8.11;100.00
44140;BME280;29803;51.048;4.686;2023-04-12T05:21:48;99845.69;;;8.14;100.00
44140;BME280;29803;51.048;4.686;2023-04-12T05:24:18;99848.16;;;8.15;100.00
44140;BME280;29803;51.048;4.686;2023-04-12T05:26:49;99850.16;;;8.13;100.00
44140;BME280;29803;51.048;4.686;2023-04-12T05:29:20;99845.69;;;8.14;100.00
44140;BME280;29803;51.048;4.686;2023-04-12T05:31:50;99851.34;;;8.19;100.00
44140;BME280;29803;51.048;4.686;2023-04-12T05:34:21;99861.25;;;8.33;100.00
44140;BME280;29803;51.048;4.686;2023-04-12T05:36:51;99859.09;;;8.37;100.00
44140;BME280;29803;51.048;4.686;2023-04-12T05:39:21;99864.94;;;8.32;100.00
44140;BME280;29803;51.048;4.686;2023-04-12T05:41:52;99849.81;;;8.24;100.00
44140;BME280;29803;51.048;4.686;2023-04-12T05:44:23;99853.81;;;8.20;100.00
44140;BME280;29803;51.048;4.686;2023-04-12T05:46:56;99848.66;;;8.19;100.00
44140;BME280;29803;51.048;4.686;2023-04-12T05:49:28;99842.50;;;8.18;100.00
44140;BME280;29803;51.048;4.686;2023-04-12T05:52:01;99842.31;;;8.20;100.00
44140;BME280;29803;51.048;4.686;2023-04-12T05:54:31;99843.31;;;8.19;100.00
44140;BME280;29803;51.048;4.686;2023-04-12T05:57:02;99839.13;;;8.24;100.00
44140;BME280;29803;51.048;4.686;2023-04-12T05:59:32;99843.44;;;8.25;100.00
44140;BME280;29803;51.048;4.686;2023-04-12T06:02:03;99834.91;;;8.30;100.00
44140;BME280;29803;51.048;4.686;2023-04-12T06:04:34;99833.69;;;8.32;100.00
44140;BME280;29803;51.048;4.686;2023-04-12T06:07:05;99836.72;;;8.38;100.00
44140;BME280;29803;51.048;4.686;2023-04-12T06:09:35;99840.88;;;8.40;100.00
44140;BME280;29803;51.048;4.686;2023-04-12T06:12:06;99845.03;;;8.43;100.00
44140;BME280;29803;51.048;4.686;2023-04-12T06:14:36;99852.41;;;8.41;100.00
44140;BME280;29803;51.048;4.686;2023-04-12T06:17:06;99862.38;;;8.47;100.00
44140;BME280;29803;51.048;4.686;2023-04-12T06:19:37;99843.50;;;8.48;100.00
44140;BME280;29803;51.048;4.686;2023-04-12T06:22:08;99851.84;;;8.53;100.00
44140;BME280;29803;51.048;4.686;2023-04-12T06:24:38;99856.31;;;8.53;100.00
44140;BME280;29803;51.048;4.686;2023-04-12T06:27:08;99857.34;;;8.52;100.00
44140;BME280;29803;51.048;4.686;2023-04-12T06:29:39;99853.31;;;8.56;100.00
44140;BME280;29803;51.048;4.686;2023-04-12T06:32:10;99846.78;;;8.59;100.00
44140;BME280;29803;51.048;4.686;2023-04-12T06:34:40;99842.91;;;8.61;100.00
44140;BME280;29803;51.048;4.686;2023-04-12T06:37:10;99854.44;;;8.62;100.00
44140;BME280;29803;51.048;4.686;2023-04-12T06:39:41;99847.44;;;8.61;100.00
44140;BME280;29803;51.048;4.686;2023-04-12T06:42:12;99854.09;;;8.65;100.00
44140;BME280;29803;51.048;4.686;2023-04-12T06:44:42;99854.09;;;8.65;100.00
44140;BME280;29803;51.048;4.686;2023-04-12T06:47:13;99858.22;;;8.67;100.00
44140;BME280;29803;51.048;4.686;2023-04-12T06:49:44;99860.56;;;8.70;100.00
44140;BME280;29803;51.048;4.686;2023-04-12T06:52:15;99855.69;;;8.74;100.00
44140;BME280;29803;51.048;4.686;2023-04-12T06:54:45;99849.16;;;8.76;100.00
44140;BME280;29803;51.048;4.686;2023-04-12T06:57:16;99843.06;;;8.82;100.00
44140;BME280;29803;51.048;4.686;2023-04-12T06:59:46;99842.72;;;8.86;100.00
44140;BME280;29803;51.048;4.686;2023-04-12T07:02:17;99843.91;;;8.83;100.00
44140;BME280;29803;51.048;4.686;2023-04-12T07:05:03;99850.13;;;8.84;100.00
44140;BME280;29803;51.048;4.686;2023-04-12T07:07:34;99837.63;;;8.76;100.00
44140;BME280;29803;51.048;4.686;2023-04-12T07:10:05;99839.66;;;8.74;100.00
44140;BME280;29803;51.048;4.686;2023-04-12T07:12:36;99842.88;;;8.69;100.00
44140;BME280;29803;51.048;4.686;2023-04-12T07:15:07;99841.06;;;8.62;100.00
44140;BME280;29803;51.048;4.686;2023-04-12T07:17:38;99844.94;;;8.59;100.00
44140;BME280;29803;51.048;4.686;2023-04-12T07:20:09;99844.22;;;8.65;100.00
44140;BME280;29803;51.048;4.686;2023-04-12T07:22:39;99841.75;;;8.64;100.00
44140;BME280;29803;51.048;4.686;2023-04-12T07:25:10;99830.66;;;8.67;100.00
44140;BME280;29803;51.048;4.686;2023-04-12T07:27:40;99834.69;;;8.63;100.00
44140;BME280;29803;51.048;4.686;2023-04-12T07:30:11;99838.97;;;8.72;100.00
44140;BME280;29803;51.048;4.686;2023-04-12T07:32:42;99835.25;;;8.81;100.00
44140;BME280;29803;51.048;4.686;2023-04-12T07:35:13;99837.66;;;8.91;100.00
44140;BME280;29803;51.048;4.686;2023-04-12T07:37:43;99840.94;;;9.01;100.00
44140;BME280;29803;51.048;4.686;2023-04-12T07:40:14;99844.47;;;9.16;100.00
44140;BME280;29803;51.048;4.686;2023-04-12T07:42:45;99840.50;;;9.12;100.00
44140;BME280;29803;51.048;4.686;2023-04-12T07:45:15;99841.25;;;9.21;100.00
44140;BME280;29803;51.048;4.686;2023-04-12T07:47:46;99845.00;;;9.49;100.00
44140;BME280;29803;51.048;4.686;2023-04-12T07:50:17;99850.16;;;9.66;100.00
44140;BME280;29803;51.048;4.686;2023-04-12T07:52:47;99847.28;;;9.67;100.00
44140;BME280;29803;51.048;4.686;2023-04-12T07:55:18;99852.09;;;9.86;100.00
44140;BME280;29803;51.048;4.686;2023-04-12T07:57:49;99836.91;;;9.94;100.00
44140;BME280;29803;51.048;4.686;2023-04-12T08:00:19;99831.75;;;9.92;100.00
44140;BME280;29803;51.048;4.686;2023-04-12T08:02:50;99828.06;;;9.93;100.00
44140;BME280;29803;51.048;4.686;2023-04-12T08:05:21;99837.56;;;10.25;100.00
44140;BME280;29803;51.048;4.686;2023-04-12T08:07:51;99834.06;;;10.25;100.00
44140;BME280;29803;51.048;4.686;2023-04-12T08:10:21;99819.94;;;10.37;100.00
44140;BME280;29803;51.048;4.686;2023-04-12T08:12:52;99835.06;;;10.24;100.00
44140;BME280;29803;51.048;4.686;2023-04-12T08:15:23;99836.34;;;10.28;100.00
44140;BME280;29803;51.048;4.686;2023-04-12T08:17:54;99831.81;;;10.28;100.00
44140;BME280;29803;51.048;4.686;2023-04-12T08:20:24;99839.28;;;10.33;100.00
44140;BME280;29803;51.048;4.686;2023-04-12T08:22:55;99831.44;;;10.31;100.00
44140;BME280;29803;51.048;4.686;2023-04-12T08:25:25;99824.59;;;10.29;100.00
44140;BME280;29803;51.048;4.686;2023-04-12T08:27:56;99823.72;;;10.43;100.00
44140;BME280;29803;51.048;4.686;2023-04-12T08:30:26;99826.81;;;10.83;100.00
44140;BME280;29803;51.048;4.686;2023-04-12T08:32:57;99834.31;;;11.15;100.00
44140;BME280;29803;51.048;4.686;2023-04-12T08:35:28;99835.59;;;11.82;100.00
44140;BME280;29803;51.048;4.686;2023-04-12T08:37:59;99824.25;;;12.41;100.00
44140;BME280;29803;51.048;4.686;2023-04-12T08:40:35;99823.03;;;12.51;100.00
44140;BME280;29803;51.048;4.686;2023-04-12T08:43:07;99832.81;;;12.91;100.00
44140;BME280;29803;51.048;4.686;2023-04-12T08:45:38;99834.28;;;13.07;100.00
44140;BME280;29803;51.048;4.686;2023-04-12T08:48:08;99830.38;;;13.36;100.00
44140;BME280;29803;51.048;4.686;2023-04-12T08:50:42;99830.59;;;13.21;100.00
44140;BME280;29803;51.048;4.686;2023-04-12T08:53:12;99815.84;;;12.91;100.00
44140;BME280;29803;51.048;4.686;2023-04-12T08:55:44;99819.97;;;12.67;100.00
44140;BME280;29803;51.048;4.686;2023-04-12T08:58:15;99815.63;;;12.66;100.00
44140;BME280;29803;51.048;4.686;2023-04-12T09:00:46;99821.59;;;12.61;100.00
44140;BME280;29803;51.048;4.686;2023-04-12T09:03:16;99818.53;;;12.98;100.00
44140;BME280;29803;51.048;4.686;2023-04-12T09:05:46;99827.41;;;12.72;100.00
44140;BME280;29803;51.048;4.686;2023-04-12T09:08:17;99828.81;;;12.54;100.00
44140;BME280;29803;51.048;4.686;2023-04-12T09:10:47;99821.72;;;12.27;100.00
44140;BME280;29803;51.048;4.686;2023-04-12T09:13:30;99810.31;;;12.11;100.00
44140;BME280;29803;51.048;4.686;2023-04-12T09:16:01;99803.44;;;12.02;100.00
44140;BME280;29803;51.048;4.686;2023-04-12T09:18:46;99810.25;;;12.05;100.00
44140;BME280;29803;51.048;4.686;2023-04-12T09:21:17;99808.59;;;12.78;100.00
44140;BME280;29803;51.048;4.686;2023-04-12T09:24:01;99816.91;;;13.36;100.00
44140;BME280;29803;51.048;4.686;2023-04-12T09:26:32;99806.22;;;13.74;100.00
44140;BME280;29803;51.048;4.686;2023-04-12T09:29:03;99817.25;;;13.66;100.00
44140;BME280;29803;51.048;4.686;2023-04-12T09:31:34;99819.38;;;13.38;100.00
44140;BME280;29803;51.048;4.686;2023-04-12T09:34:07;99808.41;;;13.06;100.00
44140;BME280;29803;51.048;4.686;2023-04-12T09:36:39;99801.94;;;12.67;100.00
44140;BME280;29803;51.048;4.686;2023-04-12T09:39:09;99800.66;;;12.43;100.00
44140;BME280;29803;51.048;4.686;2023-04-12T09:41:40;99807.47;;;12.33;100.00
44140;BME280;29803;51.048;4.686;2023-04-12T09:44:27;99814.03;;;12.10;100.00
44140;BME280;29803;51.048;4.686;2023-04-12T09:47:00;99829.41;;;11.82;100.00
44140;BME280;29803;51.048;4.686;2023-04-12T09:49:47;99833.34;;;11.58;100.00
44140;BME280;29803;51.048;4.686;2023-04-12T09:52:17;99833.88;;;11.40;100.00
44140;BME280;29803;51.048;4.686;2023-04-12T09:54:48;99840.72;;;11.49;100.00
44140;BME280;29803;51.048;4.686;2023-04-12T09:57:22;99834.19;;;11.58;100.00
44140;BME280;29803;51.048;4.686;2023-04-12T09:59:58;99828.66;;;11.66;100.00
44140;BME280;29803;51.048;4.686;2023-04-12T10:02:30;99831.81;;;11.77;100.00
44140;BME280;29803;51.048;4.686;2023-04-12T10:05:01;99830.56;;;11.79;100.00
44140;BME280;29803;51.048;4.686;2023-04-12T10:07:48;99830.53;;;12.01;100.00
44140;BME280;29803;51.048;4.686;2023-04-12T10:10:19;99832.88;;;12.17;100.00
44140;BME280;29803;51.048;4.686;2023-04-12T10:12:50;99828.38;;;12.31;100.00
44140;BME280;29803;51.048;4.686;2023-04-12T10:15:20;99832.34;;;12.48;100.00
44140;BME280;29803;51.048;4.686;2023-04-12T10:17:52;99833.63;;;12.65;100.00
44140;BME280;29803;51.048;4.686;2023-04-12T10:20:23;99825.09;;;12.49;100.00
44140;BME280;29803;51.048;4.686;2023-04-12T10:22:55;99822.34;;;12.29;100.00
44140;BME280;29803;51.048;4.686;2023-04-12T10:25:27;99823.00;;;12.44;100.00
44140;BME280;29803;51.048;4.686;2023-04-12T10:28:19;99815.13;;;12.36;100.00
44140;BME280;29803;51.048;4.686;2023-04-12T10:30:50;99815.69;;;12.18;100.00
44140;BME280;29803;51.048;4.686;2023-04-12T10:33:26;99818.81;;;12.22;100.00
44140;BME280;29803;51.048;4.686;2023-04-12T10:38:29;99811.56;;;12.15;100.00
44140;BME280;29803;51.048;4.686;2023-04-12T10:46:49;99815.75;;;11.83;100.00
44140;BME280;29803;51.048;4.686;2023-04-12T10:49:19;99817.66;;;11.55;100.00
44140;BME280;29803;51.048;4.686;2023-04-12T10:54:32;99817.81;;;11.47;100.00
44140;BME280;29803;51.048;4.686;2023-04-12T10:57:45;99819.06;;;11.51;100.00
44140;BME280;29803;51.048;4.686;2023-04-12T11:00:18;99836.22;;;11.22;100.00
44140;BME280;29803;51.048;4.686;2023-04-12T11:03:03;99853.88;;;10.88;100.00
44140;BME280;29803;51.048;4.686;2023-04-12T11:05:55;99848.72;;;10.29;100.00
44140;BME280;29803;51.048;4.686;2023-04-12T11:08:28;99846.25;;;9.98;100.00
44140;BME280;29803;51.048;4.686;2023-04-12T11:11:00;99837.84;;;10.16;100.00
44140;BME280;29803;51.048;4.686;2023-04-12T11:13:46;99839.25;;;10.69;100.00
44140;BME280;29803;51.048;4.686;2023-04-12T11:16:17;99841.81;;;11.27;100.00
44140;BME280;29803;51.048;4.686;2023-04-12T11:18:47;99833.34;;;11.58;100.00
44140;BME280;29803;51.048;4.686;2023-04-12T11:21:19;99827.97;;;11.86;100.00
44140;BME280;29803;51.048;4.686;2023-04-12T11:23:50;99823.09;;;12.03;100.00
44140;BME280;29803;51.048;4.686;2023-04-12T11:26:22;99819.72;;;12.49;100.00
44140;BME280;29803;51.048;4.686;2023-04-12T11:28:54;99816.88;;;12.90;100.00
44140;BME280;29803;51.048;4.686;2023-04-12T11:31:25;99813.56;;;13.21;100.00
44140;BME280;29803;51.048;4.686;2023-04-12T11:33:58;99803.84;;;12.80;100.00
44140;BME280;29803;51.048;4.686;2023-04-12T11:36:29;99812.31;;;12.77;100.00
44140;BME280;29803;51.048;4.686;2023-04-12T11:38:59;99802.59;;;12.76;100.00
44140;BME280;29803;51.048;4.686;2023-04-12T11:41:30;99807.97;;;12.96;100.00
44140;BME280;29803;51.048;4.686;2023-04-12T11:44:01;99806.53;;;13.07;100.00
44140;BME280;29803;51.048;4.686;2023-04-12T11:46:33;99805.09;;;12.91;100.00
44140;BME280;29803;51.048;4.686;2023-04-12T11:49:03;99800.28;;;12.80;100.00
44140;BME280;29803;51.048;4.686;2023-04-12T11:51:34;99799.69;;;12.84;100.00
44140;BME280;29803;51.048;4.686;2023-04-12T11:54:05;99800.72;;;13.03;100.00
44140;BME280;29803;51.048;4.686;2023-04-12T11:56:36;99798.66;;;13.12;100.00
44140;BME280;29803;51.048;4.686;2023-04-12T11:59:07;99802.59;;;12.96;100.00
44140;BME280;29803;51.048;4.686;2023-04-12T12:01:38;99822.47;;;12.75;100.00
44140;BME280;29803;51.048;4.686;2023-04-12T12:04:08;99865.09;;;11.76;100.00
44140;BME280;29803;51.048;4.686;2023-04-12T12:06:39;99884.09;;;10.39;100.00
44140;BME280;29803;51.048;4.686;2023-04-12T12:09:10;99881.06;;;9.01;100.00
44140;BME280;29803;51.048;4.686;2023-04-12T12:11:40;99871.09;;;8.32;100.00
44140;BME280;29803;51.048;4.686;2023-04-12T12:14:11;99863.59;;;7.97;100.00
44140;BME280;29803;51.048;4.686;2023-04-12T12:16:41;99867.00;;;7.83;100.00
44140;BME280;29803;51.048;4.686;2023-04-12T12:19:12;99866.84;;;7.76;100.00
44140;BME280;29803;51.048;4.686;2023-04-12T12:21:43;99871.00;;;7.87;100.00
44140;BME280;29803;51.048;4.686;2023-04-12T12:24:14;99884.13;;;7.96;100.00
44140;BME280;29803;51.048;4.686;2023-04-12T12:26:48;99877.44;;;8.09;100.00
44140;BME280;29803;51.048;4.686;2023-04-12T12:29:19;99868.63;;;7.92;100.00
44140;BME280;29803;51.048;4.686;2023-04-12T12:31:52;99866.78;;;7.92;100.00
44140;BME280;29803;51.048;4.686;2023-04-12T12:34:23;99865.66;;;8.26;100.00
44140;BME280;29803;51.048;4.686;2023-04-12T12:36:54;99872.72;;;8.50;100.00
44140;BME280;29803;51.048;4.686;2023-04-12T12:39:26;99870.72;;;8.75;100.00
44140;BME280;29803;51.048;4.686;2023-04-12T12:41:56;99870.78;;;8.90;100.00
44140;BME280;29803;51.048;4.686;2023-04-12T12:44:27;99865.19;;;8.99;100.00
44140;BME280;29803;51.048;4.686;2023-04-12T12:46:59;99868.50;;;9.24;100.00
44140;BME280;29803;51.048;4.686;2023-04-12T12:49:30;99860.03;;;9.50;100.00
44140;BME280;29803;51.048;4.686;2023-04-12T12:52:02;99867.97;;;9.73;100.00
44140;BME280;29803;51.048;4.686;2023-04-12T12:54:33;99869.28;;;9.92;100.00
44140;BME280;29803;51.048;4.686;2023-04-12T12:57:05;99850.84;;;10.19;100.00
44140;BME280;29803;51.048;4.686;2023-04-12T12:59:35;99854.97;;;10.51;100.00
44140;BME280;29803;51.048;4.686;2023-04-12T13:02:06;99834.47;;;10.86;100.00
44140;BME280;29803;51.048;4.686;2023-04-12T13:04:37;99828.09;;;10.87;100.00
44140;BME280;29803;51.048;4.686;2023-04-12T13:07:07;99825.97;;;10.82;100.00
44140;BME280;29803;51.048;4.686;2023-04-12T13:09:37;99828.94;;;11.15;100.00
44140;BME280;29803;51.048;4.686;2023-04-12T13:12:08;99823.88;;;10.78;100.00
44140;BME280;29803;51.048;4.686;2023-04-12T13:14:39;99830.19;;;10.92;100.00
44140;BME280;29803;51.048;4.686;2023-04-12T13:17:11;99832.81;;;10.85;100.00
44140;BME280;29803;51.048;4.686;2023-04-12T13:19:41;99826.28;;;10.94;100.00
44140;BME280;29803;51.048;4.686;2023-04-12T13:22:12;99806.22;;;10.69;100.00
44140;BME280;29803;51.048;4.686;2023-04-12T13:24:43;99797.69;;;10.80;100.00
44140;BME280;29803;51.048;4.686;2023-04-12T13:27:14;99807.97;;;10.76;100.00
44140;BME280;29803;51.048;4.686;2023-04-12T13:29:45;99799.94;;;11.04;100.00
44140;BME280;29803;51.048;4.686;2023-04-12T13:32:15;99799.41;;;11.15;100.00
44140;BME280;29803;51.048;4.686;2023-04-12T13:34:47;99786.66;;;10.96;100.00
44140;BME280;29803;51.048;4.686;2023-04-12T13:37:18;99785.34;;;10.85;100.00
44140;BME280;29803;51.048;4.686;2023-04-12T13:39:49;99793.75;;;11.04;100.00